Time;durP1;ratioP1;P1;durP2;ratioP2;P2;SDS_P1;SDS_P2;PMS_P1;PMS_P2;Temp;Humidity;BMP_temperature;BMP_pressure;BME280_temperature;BME280_humidity;BME280_pressure;Samples;Min_cycle;Max_cycle;Signal;HPM_P1;HPM_P2
2023/08/20 00:01:26;;;;;;;8.80;3.78;;;16.10;99.90;;;;;;5005551;28;20121;-71
2023/08/20 00:03:53;;;;;;;7.68;4.43;;;16.10;99.90;;;;;;4989552;28;20049;-72
2023/08/20 00:06:20;;;;;;;15.32;5.68;;;16.10;99.90;;;;;;5015819;28;20046;-72
2023/08/20 00:08:46;;;;;;;15.18;5.28;;;16.00;99.90;;;;;;5024170;28;20053;-72
2023/08/20 00:11:13;;;;;;;13.02;4.93;;;16.00;99.90;;;;;;5022117;28;20037;-72
2023/08/20 00:13:39;;;;;;;13.30;5.55;;;16.00;99.90;;;;;;5006186;28;20037;-72
2023/08/20 00:16:05;;;;;;;12.45;5.57;;;16.00;99.90;;;;;;4994239;28;20030;-72
2023/08/20 00:18:31;;;;;;;14.30;5.95;;;16.00;99.90;;;;;;4990752;28;20119;-78
2023/08/20 00:20:57;;;;;;;14.15;5.38;;;15.90;99.90;;;;;;4982264;28;20042;-78
2023/08/20 00:23:23;;;;;;;11.10;5.68;;;15.90;99.90;;;;;;5007857;28;21078;-78
2023/08/20 00:25:49;;;;;;;18.33;6.18;;;15.90;99.90;;;;;;4979683;28;20551;-77
2023/08/20 00:28:15;;;;;;;10.98;5.40;;;15.90;99.90;;;;;;4995947;28;20121;-78
2023/08/20 00:30:41;;;;;;;13.55;6.20;;;15.90;99.90;;;;;;4974950;28;20049;-78
2023/08/20 00:33:06;;;;;;;10.57;5.28;;;15.90;99.90;;;;;;5013633;28;20042;-78
2023/08/20 00:35:32;;;;;;;12.70;5.72;;;15.90;99.90;;;;;;5019804;28;20030;-77
2023/08/20 00:37:58;;;;;;;12.77;6.50;;;15.90;99.90;;;;;;5014450;28;20069;-78
2023/08/20 00:40:24;;;;;;;13.77;6.53;;;15.80;99.90;;;;;;4994069;28;20534;-78
2023/08/20 00:42:50;;;;;;;9.40;6.10;;;15.90;99.90;;;;;;5030576;28;20097;-78
2023/08/20 00:45:16;;;;;;;12.07;6.15;;;15.90;99.90;;;;;;4990728;28;20041;-78
2023/08/20 00:47:42;;;;;;;13.18;6.57;;;15.90;99.90;;;;;;4979144;28;20464;-77
2023/08/20 00:50:09;;;;;;;12.65;6.25;;;15.90;99.90;;;;;;5018587;28;20097;-78
2023/08/20 00:52:35;;;;;;;14.07;6.25;;;15.80;99.90;;;;;;4989814;28;20030;-78
2023/08/20 00:55:08;;;;;;;17.50;7.13;;;15.80;99.90;;;;;;4997766;28;20045;-78
2023/08/20 00:57:35;;;;;;;8.48;5.50;;;15.80;99.90;;;;;;4999955;28;20046;-78
2023/08/20 01:00:06;;;;;;;11.48;6.45;;;15.80;99.90;;;;;;5020257;28;20049;-78
2023/08/20 01:02:33;;;;;;;13.25;6.43;;;15.60;99.90;;;;;;4993750;28;20037;-78
2023/08/20 01:04:59;;;;;;;11.23;6.20;;;15.70;99.90;;;;;;4987331;28;20393;-78
2023/08/20 01:07:39;;;;;;;13.15;5.82;;;15.70;99.90;;;;;;5019580;28;20064;-78
2023/08/20 01:10:32;;;;;;;17.33;7.15;;;15.70;99.90;;;;;;5030587;28;20070;-78
2023/08/20 01:12:58;;;;;;;12.25;6.20;;;15.60;99.90;;;;;;5000262;28;20048;-78
2023/08/20 01:15:24;;;;;;;12.10;6.38;;;15.60;99.90;;;;;;5003592;28;20038;-78
2023/08/20 01:17:50;;;;;;;8.95;6.22;;;15.60;99.90;;;;;;5008815;28;20459;-78
2023/08/20 01:20:16;;;;;;;11.50;6.63;;;15.60;99.90;;;;;;5002140;28;20101;-78
2023/08/20 01:22:48;;;;;;;13.30;7.55;;;15.60;99.90;;;;;;5020471;28;20088;-79
2023/08/20 01:25:35;;;;;;;8.52;6.28;;;15.50;99.90;;;;;;5020483;28;20054;-77
2023/08/20 01:28:21;;;;;;;13.63;7.15;;;15.50;99.90;;;;;;5028492;28;20049;-77
2023/08/20 01:30:47;;;;;;;9.40;6.32;;;15.50;99.90;;;;;;5030462;28;20052;-78
2023/08/20 01:33:14;;;;;;;12.10;6.70;;;15.40;99.90;;;;;;4989014;28;20511;-78
2023/08/20 01:35:40;;;;;;;11.27;6.97;;;15.40;99.90;;;;;;4999098;28;20451;-78
2023/08/20 01:38:06;;;;;;;11.85;7.47;;;15.40;99.90;;;;;;5000249;28;20139;-77
2023/08/20 01:40:32;;;;;;;16.80;7.35;;;15.40;99.90;;;;;;5005104;28;20439;-77
2023/08/20 01:42:57;;;;;;;11.10;6.38;;;15.40;99.90;;;;;;5005364;28;20045;-78
2023/08/20 01:45:23;;;;;;;13.45;6.55;;;15.40;99.90;;;;;;5034209;28;20530;-78
2023/08/20 01:47:49;;;;;;;14.23;6.97;;;15.40;99.90;;;;;;4993387;28;20399;-77
2023/08/20 01:50:15;;;;;;;16.25;7.22;;;15.40;99.90;;;;;;5002330;28;20039;-77
2023/08/20 01:52:40;;;;;;;13.68;8.10;;;15.30;99.90;;;;;;5001289;28;22085;-77
2023/08/20 01:55:07;;;;;;;13.32;6.93;;;15.30;99.90;;;;;;4998337;28;20121;-77
2023/08/20 01:57:32;;;;;;;13.32;7.18;;;15.30;99.90;;;;;;5020631;28;20068;-77
2023/08/20 01:59:58;;;;;;;11.52;7.20;;;15.30;99.90;;;;;;4975676;28;20431;-78
2023/08/20 02:02:24;;;;;;;17.05;7.78;;;15.30;99.90;;;;;;5011189;28;20046;-78
2023/08/20 02:04:50;;;;;;;13.10;8.32;;;15.30;99.90;;;;;;5022806;28;20451;-78
2023/08/20 02:07:16;;;;;;;14.68;8.07;;;15.30;99.90;;;;;;4996019;28;20042;-78
2023/08/20 02:09:45;;;;;;;14.75;7.50;;;15.30;99.90;;;;;;5044569;28;20031;-77
2023/08/20 02:12:10;;;;;;;15.32;7.85;;;15.30;99.90;;;;;;4995910;28;20045;-78
2023/08/20 02:14:36;;;;;;;13.00;7.40;;;15.30;99.90;;;;;;4993027;28;20150;-77
2023/08/20 02:17:02;;;;;;;16.42;8.68;;;15.30;99.90;;;;;;5035238;28;20141;-77
2023/08/20 02:19:28;;;;;;;13.75;8.00;;;15.30;99.90;;;;;;4990600;28;20050;-77
2023/08/20 02:21:54;;;;;;;17.90;7.57;;;15.20;99.90;;;;;;4977100;28;20042;-77
2023/08/20 02:24:20;;;;;;;13.05;7.82;;;15.20;99.90;;;;;;5037687;28;20074;-77
2023/08/20 02:26:45;;;;;;;16.63;7.53;;;15.20;99.90;;;;;;4999121;28;20093;-77
2023/08/20 02:29:11;;;;;;;14.60;7.93;;;15.20;99.90;;;;;;5000643;28;20421;-77
2023/08/20 02:31:37;;;;;;;16.15;9.40;;;15.20;99.90;;;;;;4997587;28;20042;-77
2023/08/20 02:34:03;;;;;;;17.92;9.05;;;15.20;99.90;;;;;;4992019;28;20033;-77
2023/08/20 02:36:29;;;;;;;15.70;8.80;;;15.20;99.90;;;;;;5023471;28;20381;-77
2023/08/20 02:38:54;;;;;;;21.75;9.05;;;15.10;99.90;;;;;;5004751;28;20050;-77
2023/08/20 02:41:20;;;;;;;18.83;9.02;;;15.10;99.90;;;;;;4999860;28;20038;-77
2023/08/20 02:43:46;;;;;;;17.42;9.45;;;15.20;99.90;;;;;;5022933;28;20038;-77
2023/08/20 02:46:12;;;;;;;20.60;9.60;;;15.10;99.90;;;;;;5006719;28;20034;-77
2023/08/20 02:48:38;;;;;;;17.88;9.40;;;15.20;99.90;;;;;;4991565;28;20387;-77
2023/08/20 02:51:03;;;;;;;19.63;10.45;;;15.20;99.90;;;;;;4994564;28;20482;-77
2023/08/20 02:53:29;;;;;;;22.90;11.40;;;15.20;99.90;;;;;;5008155;28;20045;-77
2023/08/20 02:55:56;;;;;;;16.45;9.68;;;15.20;99.90;;;;;;5007994;28;20095;-77
2023/08/20 02:58:22;;;;;;;22.23;11.30;;;15.20;99.90;;;;;;4989801;28;20503;-77
2023/08/20 03:00:48;;;;;;;20.55;10.40;;;15.20;99.90;;;;;;5035765;28;20085;-77
2023/08/20 03:03:14;;;;;;;16.50;10.32;;;15.30;99.90;;;;;;5005764;28;20074;-77
2023/08/20 03:05:39;;;;;;;20.98;10.55;;;15.20;99.90;;;;;;4991247;28;20038;-77
2023/08/20 03:08:06;;;;;;;16.77;10.02;;;15.20;99.90;;;;;;4998187;28;20353;-77
2023/08/20 03:10:32;;;;;;;21.88;10.65;;;15.20;99.90;;;;;;4992399;28;20050;-77
2023/08/20 03:13:02;;;;;;;15.73;10.07;;;15.20;99.90;;;;;;5021879;28;20038;-78
2023/08/20 03:15:28;;;;;;;15.68;10.10;;;15.10;99.90;;;;;;4986010;28;20419;-77
2023/08/20 03:17:54;;;;;;;15.35;9.90;;;15.10;99.90;;;;;;5009006;28;20403;-78
2023/08/20 03:20:20;;;;;;;14.77;9.68;;;15.10;99.90;;;;;;4997962;28;20044;-78
2023/08/20 03:22:46;;;;;;;13.75;9.30;;;15.10;99.90;;;;;;4995824;28;20503;-77
2023/08/20 03:25:11;;;;;;;16.15;9.52;;;15.00;99.90;;;;;;5029941;28;20050;-77
2023/08/20 03:27:37;;;;;;;18.65;9.77;;;15.00;99.90;;;;;;5006795;28;20040;-77
2023/08/20 03:30:04;;;;;;;18.02;9.27;;;15.00;99.90;;;;;;4999737;28;20492;-77
2023/08/20 03:32:31;;;;;;;16.88;9.40;;;15.00;99.90;;;;;;4993350;28;20495;-77
2023/08/20 03:34:58;;;;;;;17.58;9.15;;;15.00;99.90;;;;;;5004257;28;20037;-77
2023/08/20 03:37:25;;;;;;;17.75;10.25;;;15.00;99.90;;;;;;4999192;28;20119;-77
2023/08/20 03:39:51;;;;;;;19.52;11.50;;;15.00;99.90;;;;;;5018644;28;20112;-77
2023/08/20 03:42:17;;;;;;;15.18;9.88;;;15.00;99.90;;;;;;4994752;28;20401;-77
2023/08/20 03:44:43;;;;;;;19.00;9.40;;;15.00;99.90;;;;;;4990856;28;20046;-77
2023/08/20 03:47:09;;;;;;;13.60;8.90;;;15.00;99.90;;;;;;4988210;28;20111;-78
2023/08/20 03:49:34;;;;;;;18.70;9.73;;;15.00;99.90;;;;;;5018373;28;20046;-77
2023/08/20 03:52:01;;;;;;;14.45;8.85;;;15.00;99.90;;;;;;5005338;28;20414;-78
2023/08/20 03:54:29;;;;;;;28.52;11.48;;;15.00;99.90;;;;;;4959985;28;20132;-78
2023/08/20 03:56:55;;;;;;;22.65;10.82;;;15.10;99.90;;;;;;5024865;28;20045;-77
2023/08/20 03:59:20;;;;;;;17.77;11.38;;;15.10;99.90;;;;;;4995526;28;20038;-77
2023/08/20 04:01:46;;;;;;;17.92;10.43;;;15.20;99.90;;;;;;4981010;28;20278;-78
2023/08/20 04:04:12;;;;;;;21.38;11.57;;;15.20;99.90;;;;;;4975654;28;20038;-77
2023/08/20 04:06:37;;;;;;;19.10;11.20;;;15.30;99.90;;;;;;5014045;28;20475;-77
2023/08/20 04:09:03;;;;;;;19.95;11.43;;;15.30;99.90;;;;;;5024151;28;20406;-77
2023/08/20 04:11:29;;;;;;;15.23;9.48;;;15.30;99.90;;;;;;4989726;28;20085;-78
2023/08/20 04:13:55;;;;;;;17.95;9.38;;;15.30;99.90;;;;;;4976629;28;20034;-78
2023/08/20 04:16:21;;;;;;;17.38;9.68;;;15.30;99.90;;;;;;4972594;28;20526;-78
2023/08/20 04:18:46;;;;;;;17.25;9.38;;;15.30;99.90;;;;;;5017075;28;20026;-77
2023/08/20 04:21:13;;;;;;;16.85;8.93;;;15.30;99.90;;;;;;5011594;28;20503;-77
2023/08/20 04:23:41;;;;;;;17.02;9.95;;;15.20;99.90;;;;;;4987529;28;20034;-77
2023/08/20 04:26:07;;;;;;;12.55;9.88;;;15.20;99.90;;;;;;4990644;28;20061;-78
2023/08/20 04:28:33;;;;;;;14.50;8.57;;;15.20;99.90;;;;;;4989959;28;20042;-78
2023/08/20 04:31:00;;;;;;;19.83;10.55;;;15.20;99.90;;;;;;4991183;28;20044;-78
2023/08/20 04:33:26;;;;;;;18.55;11.75;;;15.20;99.90;;;;;;4976554;28;20684;-77
2023/08/20 04:35:52;;;;;;;20.13;10.93;;;15.10;99.90;;;;;;4987384;28;20407;-78
2023/08/20 04:38:18;;;;;;;16.85;10.50;;;15.20;99.90;;;;;;4992430;28;20060;-78
2023/08/20 04:40:48;;;;;;;22.95;11.52;;;15.20;99.90;;;;;;5023744;28;20447;-78
2023/08/20 04:43:14;;;;;;;18.33;11.15;;;15.20;99.90;;;;;;4994402;28;20045;-78
2023/08/20 04:45:40;;;;;;;16.75;9.98;;;15.10;99.90;;;;;;4989889;28;20112;-78
2023/08/20 04:48:06;;;;;;;14.02;10.60;;;15.10;99.90;;;;;;4973246;28;20048;-77
2023/08/20 04:50:32;;;;;;;15.48;10.55;;;15.10;99.90;;;;;;4989316;28;20498;-77
2023/08/20 04:53:00;;;;;;;18.98;10.70;;;15.10;99.90;;;;;;5020437;28;20085;-77
2023/08/20 04:55:27;;;;;;;18.92;11.15;;;15.10;99.90;;;;;;5041070;28;20049;-77
2023/08/20 04:57:53;;;;;;;20.48;11.93;;;15.10;99.90;;;;;;5003245;28;20041;-77
2023/08/20 05:00:19;;;;;;;17.85;11.85;;;15.10;99.90;;;;;;4993488;28;20049;-77
2023/08/20 05:02:45;;;;;;;14.70;11.27;;;15.10;99.90;;;;;;5010600;28;20042;-77
2023/08/20 05:05:11;;;;;;;17.38;11.70;;;15.20;99.90;;;;;;4981178;28;20049;-77
2023/08/20 05:07:37;;;;;;;24.83;14.20;;;15.10;99.90;;;;;;5005608;28;20082;-77
2023/08/20 05:10:03;;;;;;;30.15;15.52;;;15.10;99.90;;;;;;5003368;28;20512;-77
2023/08/20 05:12:28;;;;;;;25.77;14.60;;;15.20;99.90;;;;;;5004999;28;20042;-77
2023/08/20 05:14:54;;;;;;;24.67;14.48;;;15.20;99.90;;;;;;4972583;28;20618;-77
2023/08/20 05:17:20;;;;;;;29.50;16.13;;;15.30;99.90;;;;;;5000604;28;20038;-77
2023/08/20 05:19:46;;;;;;;32.30;15.23;;;15.30;99.90;;;;;;4988120;28;20044;-77
2023/08/20 05:22:11;;;;;;;26.77;13.93;;;15.40;99.90;;;;;;4979678;28;20523;-77
2023/08/20 05:24:38;;;;;;;24.73;14.68;;;15.50;99.90;;;;;;5018111;28;20041;-77
2023/08/20 05:27:16;;;;;;;22.30;14.50;;;15.60;99.90;;;;;;4988990;28;20046;-78
2023/08/20 05:29:41;;;;;;;20.55;13.65;;;15.60;99.90;;;;;;4997472;28;20045;-78
2023/08/20 05:32:08;;;;;;;27.10;15.25;;;15.70;99.90;;;;;;4971313;28;20041;-77
2023/08/20 05:34:33;;;;;;;20.90;12.93;;;15.70;99.90;;;;;;4992724;28;20084;-79
2023/08/20 05:37:00;;;;;;;20.38;14.18;;;15.80;99.90;;;;;;5006183;28;20164;-77
2023/08/20 05:39:26;;;;;;;21.90;14.15;;;15.80;99.90;;;;;;4992059;28;20065;-77
2023/08/20 05:41:55;;;;;;;21.80;13.57;;;15.90;99.90;;;;;;4975853;28;20042;-77
2023/08/20 05:44:21;;;;;;;20.65;14.02;;;15.90;99.90;;;;;;5015056;28;20132;-77
2023/08/20 05:46:48;;;;;;;22.10;13.05;;;16.00;99.90;;;;;;5008278;28;20038;-77
2023/08/20 05:49:15;;;;;;;22.05;12.57;;;16.00;99.90;;;;;;4983971;28;20068;-78
2023/08/20 05:51:44;;;;;;;17.02;12.63;;;16.00;99.90;;;;;;4976456;28;20392;-77
2023/08/20 05:54:10;;;;;;;20.00;12.40;;;16.10;99.90;;;;;;5009807;28;20099;-77
2023/08/20 05:56:37;;;;;;;20.30;13.68;;;16.10;99.90;;;;;;4993893;28;20045;-77
2023/08/20 05:59:03;;;;;;;20.48;12.32;;;16.20;99.90;;;;;;5007695;28;20104;-77
2023/08/20 06:01:29;;;;;;;19.27;12.48;;;16.20;99.90;;;;;;5022110;28;20042;-76
2023/08/20 06:03:55;;;;;;;22.00;13.02;;;16.20;99.90;;;;;;5005186;28;20052;-78
2023/08/20 06:06:21;;;;;;;14.77;10.45;;;16.30;99.90;;;;;;5036126;28;20038;-77
2023/08/20 06:08:47;;;;;;;17.55;11.98;;;16.30;99.90;;;;;;4974930;28;20428;-77
2023/08/20 06:11:13;;;;;;;18.65;11.85;;;16.40;99.90;;;;;;5022838;28;20135;-77
2023/08/20 06:13:39;;;;;;;15.15;10.73;;;16.40;99.90;;;;;;4990956;28;20426;-77
2023/08/20 06:16:06;;;;;;;18.85;11.18;;;16.50;99.90;;;;;;5003374;28;20042;-78
2023/08/20 06:18:32;;;;;;;18.27;10.70;;;16.50;99.90;;;;;;4997793;28;20431;-77
2023/08/20 06:20:58;;;;;;;15.50;9.80;;;16.50;99.90;;;;;;4983000;28;20072;-77
2023/08/20 06:23:24;;;;;;;14.20;9.15;;;16.60;99.90;;;;;;4976476;28;20085;-77
2023/08/20 06:25:52;;;;;;;15.02;8.68;;;16.70;99.90;;;;;;5010526;28;20483;-78
2023/08/20 06:28:19;;;;;;;15.30;8.27;;;16.70;99.90;;;;;;4995119;28;20038;-77
2023/08/20 06:30:45;;;;;;;18.50;8.07;;;16.80;99.90;;;;;;5039771;28;20381;-76
2023/08/20 06:33:11;;;;;;;15.73;8.98;;;16.90;99.90;;;;;;5018283;28;20045;-77
2023/08/20 06:35:38;;;;;;;13.70;7.90;;;16.90;99.90;;;;;;5015823;28;20030;-76
2023/08/20 06:38:04;;;;;;;17.90;9.13;;;17.00;99.90;;;;;;5006584;28;20180;-76
2023/08/20 06:40:30;;;;;;;13.35;7.80;;;17.00;99.90;;;;;;4973953;28;20045;-77
2023/08/20 06:42:56;;;;;;;16.13;8.65;;;17.10;99.90;;;;;;4992761;28;20131;-76
2023/08/20 06:45:22;;;;;;;13.95;8.00;;;17.10;99.90;;;;;;5016105;28;20080;-77
2023/08/20 06:47:47;;;;;;;14.15;7.85;;;17.20;99.90;;;;;;4992120;28;20041;-77
2023/08/20 06:50:13;;;;;;;12.68;7.90;;;17.30;99.90;;;;;;4987058;28;20049;-77
2023/08/20 06:52:39;;;;;;;14.07;7.43;;;17.40;99.90;;;;;;5035168;28;20037;-77
2023/08/20 06:55:05;;;;;;;15.98;6.57;;;17.40;99.90;;;;;;4960097;28;20183;-76
2023/08/20 06:57:31;;;;;;;15.07;7.72;;;17.50;99.90;;;;;;5023786;28;20037;-74
2023/08/20 06:59:57;;;;;;;13.93;6.80;;;17.60;99.90;;;;;;5017881;28;20034;-72
2023/08/20 07:02:23;;;;;;;19.17;8.00;;;17.70;99.90;;;;;;5011670;28;20420;-72
2023/08/20 07:04:48;;;;;;;13.32;8.52;;;17.80;99.90;;;;;;5001373;28;20050;-73
2023/08/20 07:07:14;;;;;;;15.05;6.20;;;18.00;99.90;;;;;;5021533;28;20043;-73
2023/08/20 07:09:40;;;;;;;9.48;5.53;;;18.10;99.90;;;;;;5000789;28;20039;-73
2023/08/20 07:12:06;;;;;;;13.88;6.43;;;18.30;99.90;;;;;;4983832;28;20030;-73
2023/08/20 07:14:32;;;;;;;12.60;6.53;;;18.40;99.90;;;;;;5000438;28;20148;-73
2023/08/20 07:17:00;;;;;;;10.65;5.57;;;18.60;99.90;;;;;;4976974;28;20044;-73
2023/08/20 07:19:26;;;;;;;14.13;6.47;;;18.70;99.90;;;;;;4999294;28;20065;-72
2023/08/20 07:21:51;;;;;;;10.68;5.53;;;18.90;99.90;;;;;;5015113;28;20487;-72
2023/08/20 07:24:18;;;;;;;13.65;5.90;;;19.00;99.90;;;;;;4974274;28;20141;-72
2023/08/20 07:26:43;;;;;;;13.63;5.68;;;19.10;99.90;;;;;;5015495;28;20049;-72
2023/08/20 07:29:09;;;;;;;12.85;4.88;;;19.20;99.90;;;;;;5015517;28;20038;-71
2023/08/20 07:31:35;;;;;;;11.77;5.25;;;19.40;99.90;;;;;;5023183;28;20038;-72
2023/08/20 07:34:02;;;;;;;8.45;5.22;;;19.40;99.90;;;;;;5005377;28;20474;-71
2023/08/20 07:36:29;;;;;;;12.05;4.88;;;19.50;99.90;;;;;;5018087;28;20118;-71
2023/08/20 07:38:55;;;;;;;8.48;4.82;;;19.60;99.90;;;;;;5030376;28;20049;-72
2023/08/20 07:41:21;;;;;;;10.68;4.47;;;19.70;99.90;;;;;;5018001;28;20076;-72
2023/08/20 07:43:48;;;;;;;11.98;4.70;;;19.80;99.90;;;;;;5030001;28;20094;-71
2023/08/20 07:46:15;;;;;;;10.32;4.65;;;19.90;99.90;;;;;;5038352;28;20037;-71
2023/08/20 07:48:41;;;;;;;6.95;4.38;;;20.00;99.90;;;;;;4991809;28;20115;-72
2023/08/20 07:51:07;;;;;;;7.53;3.72;;;20.10;99.90;;;;;;4990572;28;20626;-72
2023/08/20 07:53:33;;;;;;;12.35;3.80;;;20.20;99.90;;;;;;5027324;28;21141;-72
2023/08/20 07:56:00;;;;;;;7.78;3.60;;;20.30;99.90;;;;;;4975224;28;20392;-72
2023/08/20 07:58:26;;;;;;;11.25;3.60;;;20.40;99.90;;;;;;5032987;28;20139;-72
2023/08/20 08:00:52;;;;;;;11.65;3.58;;;20.50;99.90;;;;;;4994983;28;20129;-72
2023/08/20 08:03:18;;;;;;;8.85;3.40;;;20.60;99.90;;;;;;5028324;28;20128;-72
2023/08/20 08:05:50;;;;;;;8.13;2.97;;;20.70;99.90;;;;;;5018767;28;20048;-71
2023/08/20 08:08:16;;;;;;;;;;;20.80;99.90;;;;;;4974294;28;20046;-71
2023/08/20 08:10:44;;;;;;;7.40;3.10;;;20.90;99.90;;;;;;5039777;28;19940;-71
2023/08/20 08:13:11;;;;;;;11.95;3.30;;;21.00;99.90;;;;;;5001196;28;20096;-71
2023/08/20 08:15:36;;;;;;;8.15;2.92;;;21.20;99.90;;;;;;5014710;28;20446;-71
2023/08/20 08:18:03;;;;;;;7.30;2.45;;;21.30;99.90;;;;;;5025718;28;20042;-70
2023/08/20 08:20:29;;;;;;;6.78;2.00;;;21.40;99.90;;;;;;5001490;28;20050;-71
2023/08/20 08:22:54;;;;;;;8.00;2.17;;;21.50;99.90;;;;;;5036823;28;20043;-71
2023/08/20 08:25:20;;;;;;;8.98;2.20;;;21.60;99.90;;;;;;4977847;28;20038;-71
2023/08/20 08:27:46;;;;;;;7.78;2.33;;;21.60;99.90;;;;;;4990553;28;20052;-71
2023/08/20 08:30:12;;;;;;;10.07;2.55;;;21.80;99.90;;;;;;4959099;28;20038;-70
2023/08/20 08:32:37;;;;;;;3.67;2.03;;;21.90;99.90;;;;;;5037277;28;20514;-69
2023/08/20 08:35:03;;;;;;;8.20;2.63;;;22.00;99.90;;;;;;4996428;28;20077;-69
2023/08/20 08:37:29;;;;;;;7.03;2.05;;;22.10;99.90;;;;;;5035733;28;20041;-70
2023/08/20 08:39:55;;;;;;;7.50;2.75;;;22.20;99.90;;;;;;4972692;28;20522;-71
2023/08/20 08:42:23;;;;;;;5.88;1.92;;;22.30;99.90;;;;;;4998341;28;20113;-70
2023/08/20 08:44:50;;;;;;;7.47;2.38;;;22.30;99.90;;;;;;4990938;28;20122;-70
2023/08/20 08:47:17;;;;;;;8.13;2.25;;;22.40;99.90;;;;;;5006810;28;20073;-70
2023/08/20 08:49:46;;;;;;;5.85;2.10;;;22.40;99.90;;;;;;5003973;28;20037;-69
2023/08/20 08:52:12;;;;;;;8.25;2.42;;;22.50;99.90;;;;;;5007307;28;20411;-70
2023/08/20 08:54:38;;;;;;;6.38;2.40;;;22.60;99.90;;;;;;4990283;28;20034;-69
2023/08/20 08:57:05;;;;;;;9.60;2.55;;;22.70;99.90;;;;;;4988692;28;20045;-68
2023/08/20 08:59:32;;;;;;;5.00;2.17;;;22.70;99.90;;;;;;5042787;28;20164;-73
2023/08/20 09:01:58;;;;;;;5.25;2.45;;;22.80;99.90;;;;;;4975813;28;20046;-82
2023/08/20 09:04:24;;;;;;;6.03;2.28;;;22.90;99.90;;;;;;5000531;28;20514;-73
2023/08/20 09:06:52;;;;;;;4.45;1.95;;;22.90;99.90;;;;;;4989262;28;20092;-74
2023/08/20 09:09:19;;;;;;;6.22;1.73;;;23.00;99.90;;;;;;5002818;28;20377;-76
2023/08/20 09:11:46;;;;;;;7.03;1.83;;;23.00;99.90;;;;;;4990507;28;20034;-74
2023/08/20 09:14:28;;;;;;;5.03;2.08;;;23.10;99.90;;;;;;5025252;28;20034;-74
2023/08/20 09:16:56;;;;;;;4.32;1.63;;;23.10;99.90;;;;;;5008246;28;20115;-71
2023/08/20 09:19:22;;;;;;;6.03;2.15;;;23.20;99.90;;;;;;5023790;28;20054;-71
2023/08/20 09:21:48;;;;;;;3.10;1.88;;;23.20;99.90;;;;;;4990082;28;20096;-72
2023/08/20 09:24:14;;;;;;;8.13;2.08;;;23.30;99.90;;;;;;4992301;28;20050;-71
2023/08/20 09:26:44;;;;;;;4.53;1.80;;;23.40;99.90;;;;;;5005761;28;20459;-70
2023/08/20 09:29:11;;;;;;;7.55;1.90;;;23.50;99.90;;;;;;5003647;28;20391;-72
2023/08/20 09:31:38;;;;;;;7.50;1.85;;;23.60;99.90;;;;;;5022170;28;20092;-72
2023/08/20 09:34:04;;;;;;;5.00;1.88;;;23.60;99.90;;;;;;5012586;28;20121;-76
2023/08/20 09:36:31;;;;;;;4.05;1.80;;;23.60;99.90;;;;;;5002410;28;20121;-72
2023/08/20 09:38:57;;;;;;;4.82;1.73;;;23.70;99.90;;;;;;5027484;28;20049;-71
2023/08/20 09:41:23;;;;;;;4.35;1.50;;;23.80;99.90;;;;;;5002288;28;20566;-71
2023/08/20 09:43:58;;;;;;;4.68;1.85;;;24.00;99.90;;;;;;5020642;28;20030;-70
2023/08/20 09:46:27;;;;;;;2.65;1.50;;;24.10;99.90;;;;;;5003052;28;20055;-73
2023/08/20 09:48:56;;;;;;;5.32;2.00;;;24.20;99.90;;;;;;4999920;28;20498;-75
2023/08/20 09:51:30;;;;;;;6.25;1.63;;;24.30;99.90;;;;;;5001184;28;20042;-69
2023/08/20 09:54:34;;;;;;;6.15;2.03;;;24.30;99.90;;;;;;5022681;28;20092;-75
2023/08/20 09:57:02;;;;;;;6.57;1.70;;;24.30;99.90;;;;;;5024811;28;20039;-75
2023/08/20 09:59:28;;;;;;;3.63;1.58;;;24.30;99.90;;;;;;5027297;28;20121;-72
2023/08/20 10:01:56;;;;;;;6.53;2.28;;;24.30;99.90;;;;;;5038147;28;20054;-71
2023/08/20 10:04:23;;;;;;;5.68;1.77;;;24.30;99.90;;;;;;4993981;28;20034;-72
2023/08/20 10:06:50;;;;;;;4.47;1.80;;;24.50;99.90;;;;;;5047716;28;20046;-71
2023/08/20 10:09:17;;;;;;;5.30;1.85;;;24.60;99.90;;;;;;5014536;28;20046;-72
2023/08/20 10:11:46;;;;;;;3.67;1.33;;;24.60;99.90;;;;;;5012704;28;20049;-72
2023/08/20 10:14:13;;;;;;;5.68;1.48;;;24.70;99.90;;;;;;5049191;28;20091;-73
2023/08/20 10:16:39;;;;;;;5.43;1.33;;;24.80;99.90;;;;;;5051975;28;20037;-72
2023/08/20 10:19:09;;;;;;;2.45;1.08;;;24.80;99.90;;;;;;5000676;28;20048;-71
2023/08/20 10:21:34;;;;;;;3.88;1.63;;;24.90;99.90;;;;;;5004749;28;20033;-71
2023/08/20 10:24:05;;;;;;;3.38;1.50;;;24.90;99.90;;;;;;5011151;28;20046;-74
2023/08/20 10:26:33;;;;;;;3.10;1.27;;;24.90;99.90;;;;;;5032904;28;20044;-73
2023/08/20 10:29:41;;;;;;;2.72;1.20;;;25.00;99.90;;;;;;5009119;28;20029;-73
2023/08/20 10:32:12;;;;;;;4.70;1.67;;;25.00;99.90;;;;;;5016574;28;20503;-73
2023/08/20 10:34:42;;;;;;;4.82;1.45;;;25.10;99.90;;;;;;5021704;28;20385;-70
2023/08/20 10:37:14;;;;;;;2.17;1.27;;;25.00;99.90;;;;;;5043097;28;20511;-72
2023/08/20 10:39:44;;;;;;;4.10;1.63;;;25.10;99.90;;;;;;5031669;28;20530;-72
2023/08/20 10:42:19;;;;;;;4.03;1.20;;;25.10;99.90;;;;;;5001908;28;20403;-72
2023/08/20 10:45:12;;;;;;;4.18;1.67;;;25.20;99.90;;;;;;5014239;28;20042;-71
2023/08/20 10:47:45;;;;;;;4.57;1.75;;;25.20;99.90;;;;;;5018271;28;20559;-70
2023/08/20 10:50:15;;;;;;;7.75;1.50;;;25.20;99.90;;;;;;5017120;28;20037;-70
2023/08/20 10:52:41;;;;;;;5.35;1.75;;;25.30;99.90;;;;;;5051564;28;20036;-71
2023/08/20 10:55:09;;;;;;;5.05;1.20;;;25.30;99.90;;;;;;5031258;28;20099;-71
2023/08/20 10:57:36;;;;;;;4.80;1.70;;;25.40;99.90;;;;;;5033606;28;20121;-72
2023/08/20 11:00:09;;;;;;;2.08;1.15;;;25.40;99.90;;;;;;5016728;28;20060;-74
2023/08/20 11:02:36;;;;;;;5.70;1.63;;;25.40;99.90;;;;;;5028272;28;20046;-74
2023/08/20 11:05:04;;;;;;;3.83;1.27;;;25.50;99.90;;;;;;5014727;28;20045;-72
2023/08/20 11:07:31;;;;;;;5.40;1.50;;;25.50;99.90;;;;;;5007192;28;20401;-75
2023/08/20 11:09:58;;;;;;;3.63;1.23;;;25.70;99.90;;;;;;5033534;28;20115;-75
2023/08/20 11:12:24;;;;;;;2.40;1.10;;;25.70;99.90;;;;;;5014163;28;20120;-74
2023/08/20 11:14:49;;;;;;;3.20;1.00;;;25.80;99.90;;;;;;5011537;28;20462;-74
2023/08/20 11:17:15;;;;;;;5.13;1.27;;;25.90;99.90;;;;;;5021367;28;20045;-75
2023/08/20 11:19:41;;;;;;;3.45;1.27;;;25.90;99.90;;;;;;5000823;28;20122;-74
2023/08/20 11:22:08;;;;;;;3.95;1.67;;;26.00;99.90;;;;;;5049140;28;20099;-74
2023/08/20 11:24:34;;;;;;;5.32;1.40;;;26.10;99.90;;;;;;5015355;28;20053;-74
2023/08/20 11:26:59;;;;;;;4.55;1.75;;;26.10;99.90;;;;;;5036522;28;20042;-74
2023/08/20 11:29:26;;;;;;;2.78;1.25;;;26.10;99.90;;;;;;5025333;28;20509;-74
2023/08/20 11:31:52;;;;;;;3.85;1.00;;;26.10;99.90;;;;;;5007950;28;20423;-73
2023/08/20 11:34:21;;;;;;;2.67;1.00;;;26.10;99.90;;;;;;5054715;28;20042;-73
2023/08/20 11:36:48;;;;;;;3.22;1.13;;;26.20;99.90;;;;;;5013934;28;20030;-73
2023/08/20 11:39:13;;;;;;;3.58;1.52;;;26.20;99.90;;;;;;5008765;28;20084;-74
2023/08/20 11:41:40;;;;;;;4.63;1.65;;;26.40;99.90;;;;;;5002532;28;20484;-72
2023/08/20 11:44:09;;;;;;;1.52;1.17;;;26.30;99.90;;;;;;5003374;28;20491;-73
2023/08/20 11:46:42;;;;;;;5.78;1.90;;;26.40;99.90;;;;;;5013977;28;20050;-74
2023/08/20 11:49:10;;;;;;;3.85;1.50;;;26.40;99.90;;;;;;5006223;28;20075;-70
2023/08/20 11:51:52;;;;;;;3.08;1.20;;;26.50;99.90;;;;;;5014470;28;20109;-71
2023/08/20 11:54:18;;;;;;;3.70;1.48;;;26.50;99.90;;;;;;5008463;28;20074;-71
2023/08/20 11:56:51;;;;;;;4.72;1.73;;;26.50;99.90;;;;;;4972598;28;20038;-71
2023/08/20 11:59:19;;;;;;;3.45;1.38;;;26.70;99.90;;;;;;5047740;28;20097;-70
2023/08/20 12:02:05;;;;;;;4.50;1.23;;;26.60;99.90;;;;;;5005738;28;20041;-73
2023/08/20 12:04:31;;;;;;;4.93;1.40;;;26.70;99.30;;;;;;5033253;28;20041;-71
2023/08/20 12:07:04;;;;;;;2.10;1.00;;;26.70;99.20;;;;;;5031753;28;20053;-69
2023/08/20 12:09:29;;;;;;;3.40;1.52;;;26.60;97.50;;;;;;5015087;28;20407;-70
2023/08/20 12:11:55;;;;;;;3.42;1.33;;;26.50;98.10;;;;;;5015917;28;20060;-69
2023/08/20 12:14:22;;;;;;;3.60;2.08;;;26.50;98.70;;;;;;5037552;28;20046;-71
2023/08/20 12:16:50;;;;;;;3.63;1.38;;;26.60;99.20;;;;;;5013179;28;20403;-69
2023/08/20 12:19:16;;;;;;;4.53;1.50;;;26.70;99.90;;;;;;5008961;28;20053;-69
2023/08/20 12:21:43;;;;;;;3.80;1.67;;;26.90;99.40;;;;;;5012805;28;20060;-70
2023/08/20 12:24:09;;;;;;;3.90;1.30;;;27.00;99.40;;;;;;4999842;28;20041;-67
2023/08/20 12:26:36;;;;;;;6.07;1.65;;;27.10;99.40;;;;;;5006952;28;20134;-66
2023/08/20 12:29:02;;;;;;;3.80;1.35;;;27.30;99.70;;;;;;5024895;28;20041;-68
2023/08/20 12:31:27;;;;;;;4.10;1.50;;;27.10;98.80;;;;;;5019513;28;20034;-67
2023/08/20 12:33:53;;;;;;;3.08;1.27;;;26.90;98.50;;;;;;4963073;28;20610;-68
2023/08/20 12:36:19;;;;;;;5.50;1.55;;;26.70;99.00;;;;;;5010829;28;20030;-68
2023/08/20 12:38:45;;;;;;;3.30;1.45;;;26.60;99.30;;;;;;5025901;28;20524;-68